sensor_id;sensor_type;location;lat;lon;timestamp;temperature;humidity
40257;DHT22;25977;45.462;9.210;2024-01-30T00:01:45;5.60;97.80
40257;DHT22;25977;45.462;9.210;2024-01-30T00:04:13;5.60;97.80
40257;DHT22;25977;45.462;9.210;2024-01-30T00:06:39;5.60;97.80
40257;DHT22;25977;45.462;9.210;2024-01-30T00:09:04;5.60;97.80
40257;DHT22;25977;45.462;9.210;2024-01-30T00:11:30;5.60;97.90
40257;DHT22;25977;45.462;9.210;2024-01-30T00:13:56;5.60;97.90
40257;DHT22;25977;45.462;9.210;2024-01-30T00:16:23;5.60;97.90
40257;DHT22;25977;45.462;9.210;2024-01-30T00:18:53;5.60;97.90
40257;DHT22;25977;45.462;9.210;2024-01-30T00:21:19;5.60;97.90
40257;DHT22;25977;45.462;9.210;2024-01-30T00:23:45;5.60;97.90
40257;DHT22;25977;45.462;9.210;2024-01-30T00:26:11;5.80;98.00
40257;DHT22;25977;45.462;9.210;2024-01-30T00:28:41;5.70;98.00
40257;DHT22;25977;45.462;9.210;2024-01-30T00:31:07;5.60;98.00
40257;DHT22;25977;45.462;9.210;2024-01-30T00:33:33;5.60;98.00
40257;DHT22;25977;45.462;9.210;2024-01-30T00:35:58;5.60;98.00
40257;DHT22;25977;45.462;9.210;2024-01-30T00:38:24;5.60;98.00
40257;DHT22;25977;45.462;9.210;2024-01-30T00:40:50;5.60;98.10
40257;DHT22;25977;45.462;9.210;2024-01-30T00:43:16;5.60;98.10
40257;DHT22;25977;45.462;9.210;2024-01-30T00:45:43;5.60;98.10
40257;DHT22;25977;45.462;9.210;2024-01-30T00:48:09;5.60;98.10
40257;DHT22;25977;45.462;9.210;2024-01-30T00:50:34;5.60;98.10
40257;DHT22;25977;45.462;9.210;2024-01-30T00:53:00;5.60;98.10
40257;DHT22;25977;45.462;9.210;2024-01-30T00:55:25;5.60;98.20
40257;DHT22;25977;45.462;9.210;2024-01-30T00:57:51;5.60;98.20
40257;DHT22;25977;45.462;9.210;2024-01-30T01:00:17;5.70;98.30
40257;DHT22;25977;45.462;9.210;2024-01-30T01:02:43;5.60;98.30
40257;DHT22;25977;45.462;9.210;2024-01-30T01:05:09;5.60;98.40
40257;DHT22;25977;45.462;9.210;2024-01-30T01:07:35;5.60;98.40
40257;DHT22;25977;45.462;9.210;2024-01-30T01:10:01;5.50;98.40
40257;DHT22;25977;45.462;9.210;2024-01-30T01:12:26;5.50;98.40
40257;DHT22;25977;45.462;9.210;2024-01-30T01:14:52;5.50;98.50
40257;DHT22;25977;45.462;9.210;2024-01-30T01:17:17;5.50;98.50
40257;DHT22;25977;45.462;9.210;2024-01-30T01:19:44;5.50;98.50
40257;DHT22;25977;45.462;9.210;2024-01-30T01:22:10;5.50;98.60
40257;DHT22;25977;45.462;9.210;2024-01-30T01:24:36;5.50;98.70
40257;DHT22;25977;45.462;9.210;2024-01-30T01:27:02;5.50;98.70
40257;DHT22;25977;45.462;9.210;2024-01-30T01:29:28;5.50;98.70
40257;DHT22;25977;45.462;9.210;2024-01-30T01:31:58;5.50;98.70
40257;DHT22;25977;45.462;9.210;2024-01-30T01:34:24;5.50;98.70
40257;DHT22;25977;45.462;9.210;2024-01-30T01:36:50;5.50;98.80
40257;DHT22;25977;45.462;9.210;2024-01-30T01:39:16;5.50;98.70
40257;DHT22;25977;45.462;9.210;2024-01-30T01:41:42;5.50;98.70
40257;DHT22;25977;45.462;9.210;2024-01-30T01:44:08;5.50;98.60
40257;DHT22;25977;45.462;9.210;2024-01-30T01:46:34;5.50;98.70
40257;DHT22;25977;45.462;9.210;2024-01-30T01:49:02;5.50;98.70
40257;DHT22;25977;45.462;9.210;2024-01-30T01:51:29;5.50;98.70
40257;DHT22;25977;45.462;9.210;2024-01-30T01:53:57;5.50;98.70
40257;DHT22;25977;45.462;9.210;2024-01-30T01:56:24;5.40;98.60
40257;DHT22;25977;45.462;9.210;2024-01-30T01:58:51;5.40;98.60
40257;DHT22;25977;45.462;9.210;2024-01-30T02:01:20;5.40;98.60
40257;DHT22;25977;45.462;9.210;2024-01-30T02:03:46;5.40;98.60
40257;DHT22;25977;45.462;9.210;2024-01-30T02:06:13;5.50;98.60
40257;DHT22;25977;45.462;9.210;2024-01-30T02:08:39;5.40;98.60
40257;DHT22;25977;45.462;9.210;2024-01-30T02:11:05;5.40;98.60
40257;DHT22;25977;45.462;9.210;2024-01-30T02:13:30;5.40;98.60
40257;DHT22;25977;45.462;9.210;2024-01-30T02:15:56;5.40;98.60
40257;DHT22;25977;45.462;9.210;2024-01-30T02:18:22;5.50;98.60
40257;DHT22;25977;45.462;9.210;2024-01-30T02:20:48;5.40;98.50
40257;DHT22;25977;45.462;9.210;2024-01-30T02:23:15;5.40;98.50
40257;DHT22;25977;45.462;9.210;2024-01-30T02:25:42;5.40;98.60
40257;DHT22;25977;45.462;9.210;2024-01-30T02:28:14;5.40;98.60
40257;DHT22;25977;45.462;9.210;2024-01-30T02:30:43;5.40;98.60
40257;DHT22;25977;45.462;9.210;2024-01-30T02:33:08;5.40;98.60
40257;DHT22;25977;45.462;9.210;2024-01-30T02:35:34;5.40;98.60
40257;DHT22;25977;45.462;9.210;2024-01-30T02:38:00;5.50;98.60
40257;DHT22;25977;45.462;9.210;2024-01-30T02:40:26;5.50;98.60
40257;DHT22;25977;45.462;9.210;2024-01-30T02:42:52;5.50;98.50
40257;DHT22;25977;45.462;9.210;2024-01-30T02:45:17;5.50;98.50
40257;DHT22;25977;45.462;9.210;2024-01-30T02:47:43;5.50;98.50
40257;DHT22;25977;45.462;9.210;2024-01-30T02:50:09;5.70;98.50
40257;DHT22;25977;45.462;9.210;2024-01-30T02:52:35;5.50;98.50
40257;DHT22;25977;45.462;9.210;2024-01-30T02:55:02;5.50;98.40
40257;DHT22;25977;45.462;9.210;2024-01-30T02:57:28;5.50;98.40
40257;DHT22;25977;45.462;9.210;2024-01-30T02:59:55;5.50;98.30
40257;DHT22;25977;45.462;9.210;2024-01-30T03:02:20;5.50;98.30
40257;DHT22;25977;45.462;9.210;2024-01-30T03:04:46;5.50;98.20
40257;DHT22;25977;45.462;9.210;2024-01-30T03:07:12;5.50;98.20
40257;DHT22;25977;45.462;9.210;2024-01-30T03:09:38;5.50;98.20
40257;DHT22;25977;45.462;9.210;2024-01-30T03:12:04;5.50;98.20
40257;DHT22;25977;45.462;9.210;2024-01-30T03:14:33;5.50;98.20
40257;DHT22;25977;45.462;9.210;2024-01-30T03:16:59;5.50;98.20
40257;DHT22;25977;45.462;9.210;2024-01-30T03:19:24;5.50;98.20
40257;DHT22;25977;45.462;9.210;2024-01-30T03:21:50;5.50;98.20
40257;DHT22;25977;45.462;9.210;2024-01-30T03:24:16;5.50;98.10
40257;DHT22;25977;45.462;9.210;2024-01-30T03:26:43;5.50;98.10
40257;DHT22;25977;45.462;9.210;2024-01-30T03:29:09;5.50;98.10
40257;DHT22;25977;45.462;9.210;2024-01-30T03:31:34;5.50;98.10
40257;DHT22;25977;45.462;9.210;2024-01-30T03:34:01;5.50;98.10
40257;DHT22;25977;45.462;9.210;2024-01-30T03:36:28;5.50;98.10
40257;DHT22;25977;45.462;9.210;2024-01-30T03:38:53;5.50;98.10
40257;DHT22;25977;45.462;9.210;2024-01-30T03:41:19;5.50;98.10
40257;DHT22;25977;45.462;9.210;2024-01-30T03:43:46;5.50;98.00
40257;DHT22;25977;45.462;9.210;2024-01-30T03:46:12;5.50;98.00
40257;DHT22;25977;45.462;9.210;2024-01-30T03:48:38;5.50;98.10
40257;DHT22;25977;45.462;9.210;2024-01-30T03:51:05;5.50;98.00
40257;DHT22;25977;45.462;9.210;2024-01-30T03:53:30;5.50;98.00
40257;DHT22;25977;45.462;9.210;2024-01-30T03:55:57;5.50;98.00
40257;DHT22;25977;45.462;9.210;2024-01-30T03:58:22;5.50;98.00
40257;DHT22;25977;45.462;9.210;2024-01-30T04:00:48;5.50;97.90
40257;DHT22;25977;45.462;9.210;2024-01-30T04:03:14;5.50;97.90
40257;DHT22;25977;45.462;9.210;2024-01-30T04:05:41;5.40;97.90
40257;DHT22;25977;45.462;9.210;2024-01-30T04:08:07;5.40;97.90
40257;DHT22;25977;45.462;9.210;2024-01-30T04:10:33;5.40;97.90
40257;DHT22;25977;45.462;9.210;2024-01-30T04:12:59;5.40;97.90
40257;DHT22;25977;45.462;9.210;2024-01-30T04:15:25;5.40;97.90
40257;DHT22;25977;45.462;9.210;2024-01-30T04:17:51;5.40;97.90
40257;DHT22;25977;45.462;9.210;2024-01-30T04:20:17;5.40;97.90
40257;DHT22;25977;45.462;9.210;2024-01-30T04:22:46;5.40;97.90
40257;DHT22;25977;45.462;9.210;2024-01-30T04:25:13;5.30;97.90
40257;DHT22;25977;45.462;9.210;2024-01-30T04:27:39;5.40;97.90
40257;DHT22;25977;45.462;9.210;2024-01-30T04:30:05;5.30;97.80
40257;DHT22;25977;45.462;9.210;2024-01-30T04:32:32;5.30;97.80
40257;DHT22;25977;45.462;9.210;2024-01-30T04:34:58;5.30;97.80
40257;DHT22;25977;45.462;9.210;2024-01-30T04:37:23;5.30;97.90
40257;DHT22;25977;45.462;9.210;2024-01-30T04:39:50;5.30;97.90
40257;DHT22;25977;45.462;9.210;2024-01-30T04:42:17;5.30;97.90
40257;DHT22;25977;45.462;9.210;2024-01-30T04:44:42;5.30;97.90
40257;DHT22;25977;45.462;9.210;2024-01-30T04:47:08;5.30;97.90
40257;DHT22;25977;45.462;9.210;2024-01-30T04:49:36;5.30;97.80
40257;DHT22;25977;45.462;9.210;2024-01-30T04:52:02;5.30;97.80
40257;DHT22;25977;45.462;9.210;2024-01-30T04:54:28;5.30;97.70
40257;DHT22;25977;45.462;9.210;2024-01-30T04:56:53;5.20;97.60
40257;DHT22;25977;45.462;9.210;2024-01-30T04:59:19;5.30;97.50
40257;DHT22;25977;45.462;9.210;2024-01-30T05:01:45;5.20;97.50
40257;DHT22;25977;45.462;9.210;2024-01-30T05:04:11;5.20;97.50
40257;DHT22;25977;45.462;9.210;2024-01-30T05:06:37;5.20;97.40
40257;DHT22;25977;45.462;9.210;2024-01-30T05:09:03;5.20;97.40
40257;DHT22;25977;45.462;9.210;2024-01-30T05:11:32;5.20;97.40
40257;DHT22;25977;45.462;9.210;2024-01-30T05:14:02;5.20;97.40
40257;DHT22;25977;45.462;9.210;2024-01-30T05:16:27;5.20;97.40
40257;DHT22;25977;45.462;9.210;2024-01-30T05:18:53;5.20;97.40
40257;DHT22;25977;45.462;9.210;2024-01-30T05:21:19;5.20;97.30
40257;DHT22;25977;45.462;9.210;2024-01-30T05:23:44;5.20;97.30
40257;DHT22;25977;45.462;9.210;2024-01-30T05:26:10;5.20;97.20
40257;DHT22;25977;45.462;9.210;2024-01-30T05:28:35;5.20;97.20
40257;DHT22;25977;45.462;9.210;2024-01-30T05:31:01;5.20;97.10
40257;DHT22;25977;45.462;9.210;2024-01-30T05:33:28;5.20;97.10
40257;DHT22;25977;45.462;9.210;2024-01-30T05:35:53;5.20;97.00
40257;DHT22;25977;45.462;9.210;2024-01-30T05:38:20;5.10;96.90
40257;DHT22;25977;45.462;9.210;2024-01-30T05:40:46;5.10;96.90
40257;DHT22;25977;45.462;9.210;2024-01-30T05:43:12;5.10;96.80
40257;DHT22;25977;45.462;9.210;2024-01-30T05:45:37;5.10;96.70
40257;DHT22;25977;45.462;9.210;2024-01-30T05:48:04;5.10;96.60
40257;DHT22;25977;45.462;9.210;2024-01-30T05:50:30;5.10;96.60
40257;DHT22;25977;45.462;9.210;2024-01-30T05:52:56;5.10;96.50
40257;DHT22;25977;45.462;9.210;2024-01-30T05:55:21;5.10;96.40
40257;DHT22;25977;45.462;9.210;2024-01-30T05:57:47;5.10;96.40
40257;DHT22;25977;45.462;9.210;2024-01-30T06:00:13;5.10;96.40
40257;DHT22;25977;45.462;9.210;2024-01-30T06:02:39;5.10;96.30
40257;DHT22;25977;45.462;9.210;2024-01-30T06:05:05;5.00;96.30
40257;DHT22;25977;45.462;9.210;2024-01-30T06:07:31;5.00;96.30
40257;DHT22;25977;45.462;9.210;2024-01-30T06:09:56;5.00;96.30
40257;DHT22;25977;45.462;9.210;2024-01-30T06:12:22;5.00;96.30
40257;DHT22;25977;45.462;9.210;2024-01-30T06:14:48;5.00;96.30
40257;DHT22;25977;45.462;9.210;2024-01-30T06:17:13;5.00;96.30
40257;DHT22;25977;45.462;9.210;2024-01-30T06:19:39;5.00;96.20
40257;DHT22;25977;45.462;9.210;2024-01-30T06:22:05;5.00;96.20
40257;DHT22;25977;45.462;9.210;2024-01-30T06:24:30;5.00;96.20
40257;DHT22;25977;45.462;9.210;2024-01-30T06:26:56;5.00;96.10
40257;DHT22;25977;45.462;9.210;2024-01-30T06:29:22;5.00;96.10
40257;DHT22;25977;45.462;9.210;2024-01-30T06:31:50;5.00;96.10
40257;DHT22;25977;45.462;9.210;2024-01-30T06:34:16;5.00;96.00
40257;DHT22;25977;45.462;9.210;2024-01-30T06:36:41;5.00;96.00
40257;DHT22;25977;45.462;9.210;2024-01-30T06:39:07;5.10;96.00
40257;DHT22;25977;45.462;9.210;2024-01-30T06:41:33;5.00;95.90
40257;DHT22;25977;45.462;9.210;2024-01-30T06:43:59;5.10;95.80
40257;DHT22;25977;45.462;9.210;2024-01-30T06:46:24;5.10;95.70
40257;DHT22;25977;45.462;9.210;2024-01-30T06:48:50;5.10;95.70
40257;DHT22;25977;45.462;9.210;2024-01-30T06:51:16;5.10;95.60
40257;DHT22;25977;45.462;9.210;2024-01-30T06:53:42;5.10;95.60
40257;DHT22;25977;45.462;9.210;2024-01-30T06:56:07;5.10;95.50
40257;DHT22;25977;45.462;9.210;2024-01-30T06:58:33;5.10;95.40
40257;DHT22;25977;45.462;9.210;2024-01-30T07:00:59;5.10;95.40
40257;DHT22;25977;45.462;9.210;2024-01-30T07:03:24;5.10;95.40
40257;DHT22;25977;45.462;9.210;2024-01-30T07:05:50;5.10;95.30
40257;DHT22;25977;45.462;9.210;2024-01-30T07:08:17;5.10;95.30
40257;DHT22;25977;45.462;9.210;2024-01-30T07:10:43;5.10;95.30
40257;DHT22;25977;45.462;9.210;2024-01-30T07:13:10;5.10;95.20
40257;DHT22;25977;45.462;9.210;2024-01-30T07:15:36;5.20;95.10
40257;DHT22;25977;45.462;9.210;2024-01-30T07:18:03;5.10;95.00
40257;DHT22;25977;45.462;9.210;2024-01-30T07:20:28;5.20;95.00
40257;DHT22;25977;45.462;9.210;2024-01-30T07:22:57;5.20;94.90
40257;DHT22;25977;45.462;9.210;2024-01-30T07:25:23;5.20;94.70
40257;DHT22;25977;45.462;9.210;2024-01-30T07:27:52;5.20;94.60
40257;DHT22;25977;45.462;9.210;2024-01-30T07:30:19;5.20;94.50
40257;DHT22;25977;45.462;9.210;2024-01-30T07:32:46;5.20;94.50
40257;DHT22;25977;45.462;9.210;2024-01-30T07:35:13;5.20;94.40
40257;DHT22;25977;45.462;9.210;2024-01-30T07:37:38;5.30;94.60
40257;DHT22;25977;45.462;9.210;2024-01-30T07:40:05;5.30;94.30
40257;DHT22;25977;45.462;9.210;2024-01-30T07:42:30;5.30;94.20
40257;DHT22;25977;45.462;9.210;2024-01-30T07:44:56;5.30;94.20
40257;DHT22;25977;45.462;9.210;2024-01-30T07:47:22;5.30;94.20
40257;DHT22;25977;45.462;9.210;2024-01-30T07:49:47;5.30;94.20
40257;DHT22;25977;45.462;9.210;2024-01-30T07:52:13;5.40;94.20
40257;DHT22;25977;45.462;9.210;2024-01-30T07:54:48;5.40;94.20
40257;DHT22;25977;45.462;9.210;2024-01-30T07:57:14;5.40;94.20
40257;DHT22;25977;45.462;9.210;2024-01-30T07:59:42;5.40;94.10
40257;DHT22;25977;45.462;9.210;2024-01-30T08:02:09;5.40;94.00
40257;DHT22;25977;45.462;9.210;2024-01-30T08:04:35;5.40;94.10
40257;DHT22;25977;45.462;9.210;2024-01-30T08:07:01;5.40;94.10
40257;DHT22;25977;45.462;9.210;2024-01-30T08:09:27;5.40;94.10
40257;DHT22;25977;45.462;9.210;2024-01-30T08:11:52;5.40;94.10
40257;DHT22;25977;45.462;9.210;2024-01-30T08:14:18;5.50;94.10
40257;DHT22;25977;45.462;9.210;2024-01-30T08:16:44;5.50;94.00
40257;DHT22;25977;45.462;9.210;2024-01-30T08:19:10;5.60;94.10
40257;DHT22;25977;45.462;9.210;2024-01-30T08:21:36;5.60;94.00
40257;DHT22;25977;45.462;9.210;2024-01-30T08:24:05;5.70;93.90
40257;DHT22;25977;45.462;9.210;2024-01-30T08:26:34;5.80;93.90
40257;DHT22;25977;45.462;9.210;2024-01-30T08:29:01;5.80;93.80
40257;DHT22;25977;45.462;9.210;2024-01-30T08:31:27;5.90;93.70
40257;DHT22;25977;45.462;9.210;2024-01-30T08:33:53;5.90;93.60
40257;DHT22;25977;45.462;9.210;2024-01-30T08:36:19;6.00;93.50
40257;DHT22;25977;45.462;9.210;2024-01-30T08:38:45;6.10;93.40
40257;DHT22;25977;45.462;9.210;2024-01-30T08:41:11;6.20;93.60
40257;DHT22;25977;45.462;9.210;2024-01-30T08:43:37;6.30;93.30
40257;DHT22;25977;45.462;9.210;2024-01-30T08:46:03;6.40;93.20
40257;DHT22;25977;45.462;9.210;2024-01-30T08:48:29;6.60;93.10
40257;DHT22;25977;45.462;9.210;2024-01-30T08:50:54;6.70;93.00
40257;DHT22;25977;45.462;9.210;2024-01-30T08:53:20;6.80;92.80
40257;DHT22;25977;45.462;9.210;2024-01-30T08:55:46;6.90;92.70
40257;DHT22;25977;45.462;9.210;2024-01-30T08:58:12;7.00;92.60
40257;DHT22;25977;45.462;9.210;2024-01-30T09:00:38;7.10;92.50
40257;DHT22;25977;45.462;9.210;2024-01-30T09:03:03;7.20;92.40
40257;DHT22;25977;45.462;9.210;2024-01-30T09:05:29;7.30;92.30
40257;DHT22;25977;45.462;9.210;2024-01-30T09:07:55;7.40;92.20
40257;DHT22;25977;45.462;9.210;2024-01-30T09:10:21;7.60;92.00
40257;DHT22;25977;45.462;9.210;2024-01-30T09:12:47;7.60;91.80
40257;DHT22;25977;45.462;9.210;2024-01-30T09:15:14;7.60;91.80
40257;DHT22;25977;45.462;9.210;2024-01-30T09:17:39;7.70;91.70
40257;DHT22;25977;45.462;9.210;2024-01-30T09:20:05;7.80;91.70
40257;DHT22;25977;45.462;9.210;2024-01-30T09:22:31;7.90;91.60
40257;DHT22;25977;45.462;9.210;2024-01-30T09:24:57;7.90;91.40
40257;DHT22;25977;45.462;9.210;2024-01-30T09:27:23;8.00;91.40
40257;DHT22;25977;45.462;9.210;2024-01-30T09:29:49;8.10;91.30
40257;DHT22;25977;45.462;9.210;2024-01-30T09:32:15;8.10;91.20
40257;DHT22;25977;45.462;9.210;2024-01-30T09:34:41;8.10;91.10
40257;DHT22;25977;45.462;9.210;2024-01-30T09:37:07;8.20;91.10
40257;DHT22;25977;45.462;9.210;2024-01-30T09:39:33;8.20;91.10
40257;DHT22;25977;45.462;9.210;2024-01-30T09:44:29;8.20;91.10
40257;DHT22;25977;45.462;9.210;2024-01-30T09:46:55;8.20;91.10
40257;DHT22;25977;45.462;9.210;2024-01-30T09:49:21;8.10;91.00
40257;DHT22;25977;45.462;9.210;2024-01-30T09:51:50;8.20;91.10
40257;DHT22;25977;45.462;9.210;2024-01-30T09:54:17;8.20;91.10
40257;DHT22;25977;45.462;9.210;2024-01-30T09:56:43;8.20;91.10
40257;DHT22;25977;45.462;9.210;2024-01-30T09:59:09;8.20;91.10
40257;DHT22;25977;45.462;9.210;2024-01-30T10:01:35;8.30;91.30
40257;DHT22;25977;45.462;9.210;2024-01-30T10:04:01;8.30;91.10
40257;DHT22;25977;45.462;9.210;2024-01-30T10:06:27;8.40;91.00
40257;DHT22;25977;45.462;9.210;2024-01-30T10:08:54;8.50;91.00
40257;DHT22;25977;45.462;9.210;2024-01-30T10:11:19;8.50;90.90
40257;DHT22;25977;45.462;9.210;2024-01-30T10:13:45;8.60;90.80
40257;DHT22;25977;45.462;9.210;2024-01-30T10:16:14;8.70;90.70
40257;DHT22;25977;45.462;9.210;2024-01-30T10:18:41;8.70;90.70
40257;DHT22;25977;45.462;9.210;2024-01-30T10:21:08;8.70;90.50
40257;DHT22;25977;45.462;9.210;2024-01-30T10:23:34;8.80;90.60
40257;DHT22;25977;45.462;9.210;2024-01-30T10:25:59;8.80;90.50
40257;DHT22;25977;45.462;9.210;2024-01-30T10:28:27;8.90;90.50
40257;DHT22;25977;45.462;9.210;2024-01-30T10:31:01;8.90;90.40
40257;DHT22;25977;45.462;9.210;2024-01-30T10:33:28;9.00;90.40
40257;DHT22;25977;45.462;9.210;2024-01-30T10:36:01;9.00;90.30
40257;DHT22;25977;45.462;9.210;2024-01-30T10:38:29;9.10;90.30
40257;DHT22;25977;45.462;9.210;2024-01-30T10:41:00;9.10;90.20
40257;DHT22;25977;45.462;9.210;2024-01-30T10:43:36;9.10;90.10
40257;DHT22;25977;45.462;9.210;2024-01-30T10:46:18;9.10;90.10
40257;DHT22;25977;45.462;9.210;2024-01-30T10:48:57;9.10;90.20
40257;DHT22;25977;45.462;9.210;2024-01-30T10:51:28;9.20;90.20
40257;DHT22;25977;45.462;9.210;2024-01-30T10:53:55;9.30;90.20
40257;DHT22;25977;45.462;9.210;2024-01-30T10:56:22;9.30;90.10
40257;DHT22;25977;45.462;9.210;2024-01-30T10:58:52;9.30;90.10
40257;DHT22;25977;45.462;9.210;2024-01-30T11:01:20;9.40;90.10
40257;DHT22;25977;45.462;9.210;2024-01-30T11:03:49;9.40;90.00
40257;DHT22;25977;45.462;9.210;2024-01-30T11:06:16;9.40;90.00
40257;DHT22;25977;45.462;9.210;2024-01-30T11:08:47;9.40;90.10
40257;DHT22;25977;45.462;9.210;2024-01-30T11:11:25;9.50;90.00
40257;DHT22;25977;45.462;9.210;2024-01-30T11:13:50;9.40;90.10
40257;DHT22;25977;45.462;9.210;2024-01-30T11:16:17;9.50;90.10
40257;DHT22;25977;45.462;9.210;2024-01-30T11:18:42;9.50;90.10
40257;DHT22;25977;45.462;9.210;2024-01-30T11:21:08;9.50;90.00
40257;DHT22;25977;45.462;9.210;2024-01-30T11:23:34;9.60;90.00
40257;DHT22;25977;45.462;9.210;2024-01-30T11:26:04;9.60;89.80
40257;DHT22;25977;45.462;9.210;2024-01-30T11:28:33;9.60;89.90
40257;DHT22;25977;45.462;9.210;2024-01-30T11:31:05;9.60;90.00
40257;DHT22;25977;45.462;9.210;2024-01-30T11:33:32;9.60;90.00
40257;DHT22;25977;45.462;9.210;2024-01-30T11:36:00;9.50;90.00
40257;DHT22;25977;45.462;9.210;2024-01-30T11:38:26;9.50;90.10
40257;DHT22;25977;45.462;9.210;2024-01-30T11:40:55;9.60;90.10
40257;DHT22;25977;45.462;9.210;2024-01-30T11:43:24;9.60;90.10
40257;DHT22;25977;45.462;9.210;2024-01-30T11:45:50;9.60;90.10
40257;DHT22;25977;45.462;9.210;2024-01-30T11:48:17;9.60;90.10
40257;DHT22;25977;45.462;9.210;2024-01-30T11:50:43;9.60;90.20
40257;DHT22;25977;45.462;9.210;2024-01-30T11:53:13;9.60;90.10
40257;DHT22;25977;45.462;9.210;2024-01-30T11:55:38;9.70;90.20
40257;DHT22;25977;45.462;9.210;2024-01-30T11:58:04;9.70;90.10
40257;DHT22;25977;45.462;9.210;2024-01-30T12:00:30;9.70;90.10
40257;DHT22;25977;45.462;9.210;2024-01-30T12:02:56;9.80;90.00
40257;DHT22;25977;45.462;9.210;2024-01-30T12:05:23;9.80;90.00
40257;DHT22;25977;45.462;9.210;2024-01-30T12:07:49;9.80;90.00
40257;DHT22;25977;45.462;9.210;2024-01-30T12:10:15;9.70;90.10
40257;DHT22;25977;45.462;9.210;2024-01-30T12:12:43;9.80;90.20
40257;DHT22;25977;45.462;9.210;2024-01-30T12:15:10;9.80;90.30
40257;DHT22;25977;45.462;9.210;2024-01-30T12:17:36;9.80;90.40
40257;DHT22;25977;45.462;9.210;2024-01-30T12:20:13;9.80;90.60
40257;DHT22;25977;45.462;9.210;2024-01-30T12:22:40;9.90;90.40
40257;DHT22;25977;45.462;9.210;2024-01-30T12:27:36;9.80;90.50
40257;DHT22;25977;45.462;9.210;2024-01-30T12:30:05;9.80;90.50
40257;DHT22;25977;45.462;9.210;2024-01-30T12:32:31;9.80;90.70
40257;DHT22;25977;45.462;9.210;2024-01-30T12:34:57;9.70;90.80
40257;DHT22;25977;45.462;9.210;2024-01-30T12:37:23;9.80;90.90
40257;DHT22;25977;45.462;9.210;2024-01-30T12:39:51;9.80;91.00
40257;DHT22;25977;45.462;9.210;2024-01-30T12:42:20;9.80;90.90
40257;DHT22;25977;45.462;9.210;2024-01-30T12:44:47;9.90;91.00
40257;DHT22;25977;45.462;9.210;2024-01-30T12:47:13;9.90;90.80
40257;DHT22;25977;45.462;9.210;2024-01-30T12:49:44;10.00;90.80
40257;DHT22;25977;45.462;9.210;2024-01-30T12:52:16;10.00;90.80
40257;DHT22;25977;45.462;9.210;2024-01-30T12:54:41;10.10;90.60
40257;DHT22;25977;45.462;9.210;2024-01-30T12:57:07;10.10;90.30
40257;DHT22;25977;45.462;9.210;2024-01-30T12:59:33;10.10;90.30
40257;DHT22;25977;45.462;9.210;2024-01-30T13:02:01;10.10;90.10
40257;DHT22;25977;45.462;9.210;2024-01-30T13:04:28;10.10;90.10
40257;DHT22;25977;45.462;9.210;2024-01-30T13:06:54;10.10;90.20
40257;DHT22;25977;45.462;9.210;2024-01-30T13:09:21;10.20;90.30
40257;DHT22;25977;45.462;9.210;2024-01-30T13:11:47;10.20;90.30
40257;DHT22;25977;45.462;9.210;2024-01-30T13:14:12;10.20;90.40
40257;DHT22;25977;45.462;9.210;2024-01-30T13:16:38;10.20;90.60
40257;DHT22;25977;45.462;9.210;2024-01-30T13:19:04;10.30;90.70
40257;DHT22;25977;45.462;9.210;2024-01-30T13:21:29;10.50;90.70
40257;DHT22;25977;45.462;9.210;2024-01-30T13:23:55;10.50;90.80
40257;DHT22;25977;45.462;9.210;2024-01-30T13:26:21;10.60;90.60
40257;DHT22;25977;45.462;9.210;2024-01-30T13:28:47;10.70;90.50
40257;DHT22;25977;45.462;9.210;2024-01-30T13:31:14;10.70;90.50
40257;DHT22;25977;45.462;9.210;2024-01-30T13:33:40;10.70;90.60
40257;DHT22;25977;45.462;9.210;2024-01-30T13:36:08;10.80;90.60
40257;DHT22;25977;45.462;9.210;2024-01-30T13:38:34;10.80;90.40
40257;DHT22;25977;45.462;9.210;2024-01-30T13:41:00;10.90;90.30
40257;DHT22;25977;45.462;9.210;2024-01-30T13:43:26;10.90;90.20
40257;DHT22;25977;45.462;9.210;2024-01-30T13:45:52;10.80;90.20
40257;DHT22;25977;45.462;9.210;2024-01-30T13:48:19;10.80;90.30
40257;DHT22;25977;45.462;9.210;2024-01-30T13:50:45;10.80;90.20
40257;DHT22;25977;45.462;9.210;2024-01-30T13:53:11;10.80;90.20
40257;DHT22;25977;45.462;9.210;2024-01-30T13:55:37;10.70;90.10
40257;DHT22;25977;45.462;9.210;2024-01-30T13:58:05;10.60;90.10
40257;DHT22;25977;45.462;9.210;2024-01-30T14:00:31;10.80;89.80
40257;DHT22;25977;45.462;9.210;2024-01-30T14:02:57;10.80;89.70
40257;DHT22;25977;45.462;9.210;2024-01-30T14:05:24;10.70;89.50
40257;DHT22;25977;45.462;9.210;2024-01-30T14:07:51;10.80;89.00
40257;DHT22;25977;45.462;9.210;2024-01-30T14:10:17;10.80;88.70
40257;DHT22;25977;45.462;9.210;2024-01-30T14:12:43;10.80;88.50
40257;DHT22;25977;45.462;9.210;2024-01-30T14:15:10;10.70;89.00
40257;DHT22;25977;45.462;9.210;2024-01-30T14:17:36;10.70;88.70
40257;DHT22;25977;45.462;9.210;2024-01-30T14:20:07;10.70;88.80
40257;DHT22;25977;45.462;9.210;2024-01-30T14:22:34;10.70;89.00
40257;DHT22;25977;45.462;9.210;2024-01-30T14:25:00;10.50;89.20
40257;DHT22;25977;45.462;9.210;2024-01-30T14:27:28;10.60;89.50
40257;DHT22;25977;45.462;9.210;2024-01-30T14:29:54;10.60;89.60
40257;DHT22;25977;45.462;9.210;2024-01-30T14:32:20;10.60;89.50
40257;DHT22;25977;45.462;9.210;2024-01-30T14:34:48;10.60;89.50
40257;DHT22;25977;45.462;9.210;2024-01-30T14:37:14;10.50;89.40
40257;DHT22;25977;45.462;9.210;2024-01-30T14:39:39;10.50;89.70
40257;DHT22;25977;45.462;9.210;2024-01-30T14:42:06;10.50;89.70
40257;DHT22;25977;45.462;9.210;2024-01-30T14:44:35;10.50;89.60
40257;DHT22;25977;45.462;9.210;2024-01-30T14:47:03;10.50;89.60
40257;DHT22;25977;45.462;9.210;2024-01-30T14:49:31;10.50;89.20
40257;DHT22;25977;45.462;9.210;2024-01-30T14:51:57;10.40;88.10
40257;DHT22;25977;45.462;9.210;2024-01-30T14:54:24;10.40;87.70
40257;DHT22;25977;45.462;9.210;2024-01-30T14:56:50;10.30;87.40
40257;DHT22;25977;45.462;9.210;2024-01-30T14:59:16;10.40;87.40
40257;DHT22;25977;45.462;9.210;2024-01-30T15:01:42;10.30;87.10
40257;DHT22;25977;45.462;9.210;2024-01-30T15:04:08;10.30;87.30
40257;DHT22;25977;45.462;9.210;2024-01-30T15:06:34;10.30;87.60
40257;DHT22;25977;45.462;9.210;2024-01-30T15:09:00;10.20;87.90
40257;DHT22;25977;45.462;9.210;2024-01-30T15:11:25;10.20;88.20
40257;DHT22;25977;45.462;9.210;2024-01-30T15:13:51;10.20;88.40
40257;DHT22;25977;45.462;9.210;2024-01-30T15:16:17;10.10;88.20
40257;DHT22;25977;45.462;9.210;2024-01-30T15:18:42;10.10;88.10
40257;DHT22;25977;45.462;9.210;2024-01-30T15:21:08;10.10;88.00
40257;DHT22;25977;45.462;9.210;2024-01-30T15:23:35;10.10;88.00
40257;DHT22;25977;45.462;9.210;2024-01-30T15:26:01;10.00;88.20
40257;DHT22;25977;45.462;9.210;2024-01-30T15:28:36;10.00;88.50
40257;DHT22;25977;45.462;9.210;2024-01-30T15:31:03;10.00;88.90
40257;DHT22;25977;45.462;9.210;2024-01-30T15:33:29;10.00;89.00
40257;DHT22;25977;45.462;9.210;2024-01-30T15:35:56;10.00;89.10
40257;DHT22;25977;45.462;9.210;2024-01-30T15:38:22;10.00;89.20
40257;DHT22;25977;45.462;9.210;2024-01-30T15:40:47;10.00;89.60
40257;DHT22;25977;45.462;9.210;2024-01-30T15:43:13;10.00;89.80